sensor_id;sensor_type;location;lat;lon;timestamp;noise_LAeq;noise_LA_min;noise_LA_max;noise_LA01;noise_LA95
66589;Laerm;53447;49.272;11.070;2023-07-16T00:01:49;41.69;38.83;47.17;;
66589;Laerm;53447;49.272;11.070;2023-07-16T00:04:14;43.42;39.39;52.92;;
66589;Laerm;53447;49.272;11.070;2023-07-16T00:06:40;44.35;39.69;55.80;;
66589;Laerm;53447;49.272;11.070;2023-07-16T00:09:05;42.22;39.72;54.94;;
66589;Laerm;53447;49.272;11.070;2023-07-16T00:11:30;41.12;38.93;49.94;;
66589;Laerm;53447;49.272;11.070;2023-07-16T00:13:55;41.38;37.84;58.12;;
66589;Laerm;53447;49.272;11.070;2023-07-16T00:16:21;44.38;39.96;57.75;;
66589;Laerm;53447;49.272;11.070;2023-07-16T00:18:46;41.26;38.63;46.34;;
66589;Laerm;53447;49.272;11.070;2023-07-16T00:21:11;41.15;38.53;48.01;;
66589;Laerm;53447;49.272;11.070;2023-07-16T00:23:37;41.16;38.73;45.54;;
66589;Laerm;53447;49.272;11.070;2023-07-16T00:26:02;41.92;39.21;55.88;;
66589;Laerm;53447;49.272;11.070;2023-07-16T00:28:27;48.76;40.46;66.75;;
66589;Laerm;53447;49.272;11.070;2023-07-16T00:30:52;41.98;39.64;47.83;;
66589;Laerm;53447;49.272;11.070;2023-07-16T00:33:18;41.25;37.96;49.73;;
66589;Laerm;53447;49.272;11.070;2023-07-16T00:35:49;41.89;37.96;50.80;;
66589;Laerm;53447;49.272;11.070;2023-07-16T00:38:16;41.90;39.12;48.85;;
66589;Laerm;53447;49.272;11.070;2023-07-16T00:40:42;41.34;37.45;46.48;;
66589;Laerm;53447;49.272;11.070;2023-07-16T00:43:07;41.95;38.83;47.34;;
66589;Laerm;53447;49.272;11.070;2023-07-16T00:45:32;42.02;37.71;49.62;;
66589;Laerm;53447;49.272;11.070;2023-07-16T00:47:57;41.59;37.17;49.35;;
66589;Laerm;53447;49.272;11.070;2023-07-16T00:50:23;45.86;37.45;68.08;;
66589;Laerm;53447;49.272;11.070;2023-07-16T00:52:48;44.79;40.03;59.03;;
66589;Laerm;53447;49.272;11.070;2023-07-16T00:55:14;44.14;40.39;59.27;;
66589;Laerm;53447;49.272;11.070;2023-07-16T00:57:39;41.76;39.48;49.48;;
66589;Laerm;53447;49.272;11.070;2023-07-16T01:00:05;41.06;37.84;49.36;;
66589;Laerm;53447;49.272;11.070;2023-07-16T01:02:30;41.17;36.55;45.02;;
66589;Laerm;53447;49.272;11.070;2023-07-16T01:04:56;41.77;37.96;54.62;;
66589;Laerm;53447;49.272;11.070;2023-07-16T01:07:21;42.55;39.56;52.95;;
66589;Laerm;53447;49.272;11.070;2023-07-16T01:09:48;41.62;38.63;49.08;;
66589;Laerm;53447;49.272;11.070;2023-07-16T01:12:13;41.24;37.71;48.67;;
66589;Laerm;53447;49.272;11.070;2023-07-16T01:14:39;41.16;38.20;48.88;;
66589;Laerm;53447;49.272;11.070;2023-07-16T01:17:05;42.65;37.31;57.16;;
66589;Laerm;53447;49.272;11.070;2023-07-16T01:19:32;41.84;38.53;49.62;;
66589;Laerm;53447;49.272;11.070;2023-07-16T01:27:17;41.24;38.53;51.50;;
66589;Laerm;53447;49.272;11.070;2023-07-16T01:29:46;43.45;40.46;53.15;;
66589;Laerm;53447;49.272;11.070;2023-07-16T01:32:14;44.47;41.38;52.83;;
66589;Laerm;53447;49.272;11.070;2023-07-16T01:34:40;47.86;42.40;56.27;;
66589;Laerm;53447;49.272;11.070;2023-07-16T01:37:05;51.96;46.76;65.07;;
66589;Laerm;53447;49.272;11.070;2023-07-16T01:39:31;52.79;48.15;63.93;;
66589;Laerm;53447;49.272;11.070;2023-07-16T01:41:59;45.56;40.79;56.03;;
66589;Laerm;53447;49.272;11.070;2023-07-16T01:44:25;42.54;39.80;52.99;;
66589;Laerm;53447;49.272;11.070;2023-07-16T01:49:24;41.74;39.30;51.69;;
66589;Laerm;53447;49.272;11.070;2023-07-16T01:51:49;40.76;37.73;47.70;;
66589;Laerm;53447;49.272;11.070;2023-07-16T01:54:15;40.68;37.31;49.43;;
66589;Laerm;53447;49.272;11.070;2023-07-16T01:56:40;40.70;37.17;42.93;;
66589;Laerm;53447;49.272;11.070;2023-07-16T01:59:05;42.52;38.93;56.53;;
66589;Laerm;53447;49.272;11.070;2023-07-16T02:01:30;44.66;41.48;57.44;;
66589;Laerm;53447;49.272;11.070;2023-07-16T02:03:56;43.69;40.86;52.14;;
66589;Laerm;53447;49.272;11.070;2023-07-16T02:06:21;44.59;40.91;56.64;;
66589;Laerm;53447;49.272;11.070;2023-07-16T02:08:46;48.17;43.51;58.53;;
66589;Laerm;53447;49.272;11.070;2023-07-16T02:11:11;44.21;39.88;65.49;;
66589;Laerm;53447;49.272;11.070;2023-07-16T02:13:36;44.88;40.46;58.15;;
66589;Laerm;53447;49.272;11.070;2023-07-16T02:16:02;42.07;39.72;52.81;;
66589;Laerm;53447;49.272;11.070;2023-07-16T02:18:27;42.86;39.56;53.61;;
66589;Laerm;53447;49.272;11.070;2023-07-16T02:20:52;41.28;36.55;47.28;;
66589;Laerm;53447;49.272;11.070;2023-07-16T02:23:17;40.89;36.71;48.75;;
66589;Laerm;53447;49.272;11.070;2023-07-16T02:25:43;40.94;36.55;48.91;;
66589;Laerm;53447;49.272;11.070;2023-07-16T02:28:08;40.86;34.95;49.21;;
66589;Laerm;53447;49.272;11.070;2023-07-16T02:30:33;40.88;36.38;48.20;;
66589;Laerm;53447;49.272;11.070;2023-07-16T02:32:58;41.18;37.45;49.09;;
66589;Laerm;53447;49.272;11.070;2023-07-16T02:35:23;40.70;36.87;48.27;;
66589;Laerm;53447;49.272;11.070;2023-07-16T02:37:49;43.15;39.03;55.05;;
66589;Laerm;53447;49.272;11.070;2023-07-16T02:40:14;44.51;40.59;55.80;;
66589;Laerm;53447;49.272;11.070;2023-07-16T02:42:39;41.90;39.96;47.54;;
66589;Laerm;53447;49.272;11.070;2023-07-16T02:45:04;41.59;37.45;45.90;;
66589;Laerm;53447;49.272;11.070;2023-07-16T02:47:30;40.95;36.37;46.60;;
66589;Laerm;53447;49.272;11.070;2023-07-16T02:49:55;40.82;35.62;45.72;;
66589;Laerm;53447;49.272;11.070;2023-07-16T02:52:20;41.46;36.55;46.24;;
66589;Laerm;53447;49.272;11.070;2023-07-16T02:54:45;42.21;36.55;48.73;;
66589;Laerm;53447;49.272;11.070;2023-07-16T02:57:11;43.38;37.58;58.94;;
66589;Laerm;53447;49.272;11.070;2023-07-16T02:59:36;42.45;37.02;53.69;;
66589;Laerm;53447;49.272;11.070;2023-07-16T03:02:01;41.37;36.55;51.68;;
66589;Laerm;53447;49.272;11.070;2023-07-16T03:04:26;43.44;39.39;59.60;;
66589;Laerm;53447;49.272;11.070;2023-07-16T03:06:52;41.87;39.21;55.90;;
66589;Laerm;53447;49.272;11.070;2023-07-16T03:09:17;41.63;37.96;52.75;;
66589;Laerm;53447;49.272;11.070;2023-07-16T03:11:42;40.99;35.82;45.43;;
66589;Laerm;53447;49.272;11.070;2023-07-16T03:14:07;41.06;36.55;48.00;;
66589;Laerm;53447;49.272;11.070;2023-07-16T03:16:33;43.83;36.38;57.67;;
66589;Laerm;53447;49.272;11.070;2023-07-16T03:18:58;44.06;36.71;57.42;;
66589;Laerm;53447;49.272;11.070;2023-07-16T03:21:23;42.81;38.53;50.40;;
66589;Laerm;53447;49.272;11.070;2023-07-16T03:23:48;41.72;36.20;53.93;;
66589;Laerm;53447;49.272;11.070;2023-07-16T03:26:14;40.77;36.02;48.05;;
66589;Laerm;53447;49.272;11.070;2023-07-16T03:28:39;47.86;36.55;66.50;;
66589;Laerm;53447;49.272;11.070;2023-07-16T03:31:04;46.90;35.62;60.19;;
66589;Laerm;53447;49.272;11.070;2023-07-16T03:33:29;47.86;35.62;60.52;;
66589;Laerm;53447;49.272;11.070;2023-07-16T03:35:54;50.28;36.20;62.74;;
66589;Laerm;53447;49.272;11.070;2023-07-16T03:38:20;50.70;36.87;64.81;;
66589;Laerm;53447;49.272;11.070;2023-07-16T03:40:48;51.11;38.31;64.79;;
66589;Laerm;53447;49.272;11.070;2023-07-16T03:43:14;53.91;38.31;68.02;;
66589;Laerm;53447;49.272;11.070;2023-07-16T03:45:40;50.83;38.73;63.93;;
66589;Laerm;53447;49.272;11.070;2023-07-16T03:48:05;50.78;38.63;62.68;;
66589;Laerm;53447;49.272;11.070;2023-07-16T03:50:30;52.94;38.93;64.08;;
66589;Laerm;53447;49.272;11.070;2023-07-16T03:52:55;52.59;37.73;62.56;;
66589;Laerm;53447;49.272;11.070;2023-07-16T03:55:21;52.49;38.53;66.00;;
66589;Laerm;53447;49.272;11.070;2023-07-16T03:57:46;50.80;38.20;62.69;;
66589;Laerm;53447;49.272;11.070;2023-07-16T04:00:11;47.91;38.42;61.46;;
66589;Laerm;53447;49.272;11.070;2023-07-16T04:02:37;49.87;40.53;61.80;;
66589;Laerm;53447;49.272;11.070;2023-07-16T04:05:02;50.29;38.53;61.61;;
66589;Laerm;53447;49.272;11.070;2023-07-16T04:07:27;51.98;37.84;67.11;;
66589;Laerm;53447;49.272;11.070;2023-07-16T04:09:53;51.23;37.31;66.34;;
66589;Laerm;53447;49.272;11.070;2023-07-16T04:12:18;43.82;37.02;56.82;;
66589;Laerm;53447;49.272;11.070;2023-07-16T04:14:43;41.49;36.20;56.01;;
66589;Laerm;53447;49.272;11.070;2023-07-16T04:17:09;46.14;36.55;62.03;;
66589;Laerm;53447;49.272;11.070;2023-07-16T04:19:34;49.17;36.38;63.57;;
66589;Laerm;53447;49.272;11.070;2023-07-16T04:21:59;45.74;35.62;59.12;;
66589;Laerm;53447;49.272;11.070;2023-07-16T04:24:25;43.23;35.19;59.78;;
66589;Laerm;53447;49.272;11.070;2023-07-16T04:26:52;43.61;36.20;60.14;;
66589;Laerm;53447;49.272;11.070;2023-07-16T04:29:17;46.23;34.16;62.45;;
66589;Laerm;53447;49.272;11.070;2023-07-16T04:31:42;43.25;34.70;65.80;;
66589;Laerm;53447;49.272;11.070;2023-07-16T04:34:07;51.41;38.08;64.97;;
66589;Laerm;53447;49.272;11.070;2023-07-16T04:36:33;51.75;39.03;66.32;;
66589;Laerm;53447;49.272;11.070;2023-07-16T04:38:58;49.13;36.87;64.99;;
66589;Laerm;53447;49.272;11.070;2023-07-16T04:41:23;53.01;37.71;68.61;;
66589;Laerm;53447;49.272;11.070;2023-07-16T04:43:48;54.01;38.83;70.19;;
66589;Laerm;53447;49.272;11.070;2023-07-16T04:46:14;52.44;38.31;70.60;;
66589;Laerm;53447;49.272;11.070;2023-07-16T04:48:41;48.94;37.45;68.51;;
66589;Laerm;53447;49.272;11.070;2023-07-16T04:51:06;50.39;38.93;67.40;;
66589;Laerm;53447;49.272;11.070;2023-07-16T04:53:31;52.68;38.53;69.87;;
66589;Laerm;53447;49.272;11.070;2023-07-16T04:55:57;53.08;38.20;63.99;;
66589;Laerm;53447;49.272;11.070;2023-07-16T04:58:22;51.30;37.96;61.91;;
66589;Laerm;53447;49.272;11.070;2023-07-16T05:00:47;53.65;38.20;69.18;;
66589;Laerm;53447;49.272;11.070;2023-07-16T05:03:12;54.64;39.04;69.03;;
66589;Laerm;53447;49.272;11.070;2023-07-16T05:05:37;52.21;38.20;64.14;;
66589;Laerm;53447;49.272;11.070;2023-07-16T05:08:03;54.96;38.08;69.15;;
66589;Laerm;53447;49.272;11.070;2023-07-16T05:10:28;51.59;37.31;65.60;;
66589;Laerm;53447;49.272;11.070;2023-07-16T05:12:53;52.17;37.17;66.50;;
66589;Laerm;53447;49.272;11.070;2023-07-16T05:15:19;49.61;36.71;63.71;;
66589;Laerm;53447;49.272;11.070;2023-07-16T05:17:44;48.26;37.17;68.51;;
66589;Laerm;53447;49.272;11.070;2023-07-16T05:20:09;50.55;37.02;68.17;;
66589;Laerm;53447;49.272;11.070;2023-07-16T05:22:35;43.13;36.87;58.93;;
66589;Laerm;53447;49.272;11.070;2023-07-16T05:25:00;48.12;36.55;61.99;;
66589;Laerm;53447;49.272;11.070;2023-07-16T05:27:25;44.95;37.31;60.10;;
66589;Laerm;53447;49.272;11.070;2023-07-16T05:29:51;43.66;35.62;54.51;;
66589;Laerm;53447;49.272;11.070;2023-07-16T05:32:16;47.12;37.17;57.97;;
66589;Laerm;53447;49.272;11.070;2023-07-16T05:34:41;48.19;37.49;59.75;;
66589;Laerm;53447;49.272;11.070;2023-07-16T05:37:06;43.84;36.71;56.53;;
66589;Laerm;53447;49.272;11.070;2023-07-16T05:39:32;45.85;36.87;61.56;;
66589;Laerm;53447;49.272;11.070;2023-07-16T05:41:57;49.20;37.96;63.52;;
66589;Laerm;53447;49.272;11.070;2023-07-16T05:44:22;50.01;36.55;63.99;;
66589;Laerm;53447;49.272;11.070;2023-07-16T05:46:48;48.43;37.24;63.68;;
66589;Laerm;53447;49.272;11.070;2023-07-16T05:49:13;52.51;38.73;62.81;;
66589;Laerm;53447;49.272;11.070;2023-07-16T05:51:38;51.16;39.03;62.61;;
66589;Laerm;53447;49.272;11.070;2023-07-16T05:54:03;50.32;39.12;63.49;;
66589;Laerm;53447;49.272;11.070;2023-07-16T05:56:29;50.61;38.20;62.81;;
66589;Laerm;53447;49.272;11.070;2023-07-16T05:58:54;50.44;38.07;65.52;;
66589;Laerm;53447;49.272;11.070;2023-07-16T06:01:19;52.41;38.63;67.31;;
66589;Laerm;53447;49.272;11.070;2023-07-16T06:03:44;51.80;39.30;64.47;;
66589;Laerm;53447;49.272;11.070;2023-07-16T06:06:10;50.11;37.17;64.70;;
66589;Laerm;53447;49.272;11.070;2023-07-16T06:08:35;50.56;37.58;63.78;;
66589;Laerm;53447;49.272;11.070;2023-07-16T06:11:00;51.30;38.08;73.14;;
66589;Laerm;53447;49.272;11.070;2023-07-16T06:13:26;50.63;38.42;61.62;;
66589;Laerm;53447;49.272;11.070;2023-07-16T06:15:53;48.12;37.17;61.43;;
66589;Laerm;53447;49.272;11.070;2023-07-16T06:18:19;47.89;36.55;59.95;;
66589;Laerm;53447;49.272;11.070;2023-07-16T06:20:44;49.68;36.55;68.13;;
66589;Laerm;53447;49.272;11.070;2023-07-16T06:23:10;44.40;36.71;63.03;;
66589;Laerm;53447;49.272;11.070;2023-07-16T06:25:36;42.89;37.02;54.80;;
66589;Laerm;53447;49.272;11.070;2023-07-16T06:28:01;46.75;38.53;64.85;;
66589;Laerm;53447;49.272;11.070;2023-07-16T06:30:26;44.60;36.87;56.29;;
66589;Laerm;53447;49.272;11.070;2023-07-16T06:32:52;48.65;37.17;65.89;;
66589;Laerm;53447;49.272;11.070;2023-07-16T06:35:17;43.28;36.55;58.27;;
66589;Laerm;53447;49.272;11.070;2023-07-16T06:37:42;50.03;36.71;62.51;;
66589;Laerm;53447;49.272;11.070;2023-07-16T06:40:07;45.81;37.02;61.62;;
66589;Laerm;53447;49.272;11.070;2023-07-16T06:42:33;50.00;37.71;65.35;;
66589;Laerm;53447;49.272;11.070;2023-07-16T06:44:58;48.79;37.84;61.57;;
66589;Laerm;53447;49.272;11.070;2023-07-16T06:47:23;48.05;36.02;62.09;;
66589;Laerm;53447;49.272;11.070;2023-07-16T06:49:49;50.03;37.71;61.63;;
66589;Laerm;53447;49.272;11.070;2023-07-16T06:52:20;40.72;36.55;51.93;;
66589;Laerm;53447;49.272;11.070;2023-07-16T06:54:49;41.28;36.02;54.64;;
66589;Laerm;53447;49.272;11.070;2023-07-16T06:57:14;50.36;37.84;62.75;;
66589;Laerm;53447;49.272;11.070;2023-07-16T06:59:39;52.10;37.84;74.25;;
66589;Laerm;53447;49.272;11.070;2023-07-16T07:02:05;50.34;38.20;61.40;;
66589;Laerm;53447;49.272;11.070;2023-07-16T07:04:31;49.74;37.45;62.87;;
66589;Laerm;53447;49.272;11.070;2023-07-16T07:06:56;50.16;37.71;62.23;;
66589;Laerm;53447;49.272;11.070;2023-07-16T07:09:21;49.39;37.71;67.65;;
66589;Laerm;53447;49.272;11.070;2023-07-16T07:11:46;48.31;37.17;68.75;;
66589;Laerm;53447;49.272;11.070;2023-07-16T07:14:12;43.82;36.02;59.71;;
66589;Laerm;53447;49.272;11.070;2023-07-16T07:16:37;57.05;37.17;79.77;;
66589;Laerm;53447;49.272;11.070;2023-07-16T07:19:04;50.82;37.17;77.75;;
66589;Laerm;53447;49.272;11.070;2023-07-16T07:21:30;47.35;36.87;65.08;;
66589;Laerm;53447;49.272;11.070;2023-07-16T07:23:55;47.62;36.02;71.00;;
66589;Laerm;53447;49.272;11.070;2023-07-16T07:26:20;47.78;37.02;70.84;;
66589;Laerm;53447;49.272;11.070;2023-07-16T07:28:46;48.56;37.17;60.78;;
66589;Laerm;53447;49.272;11.070;2023-07-16T07:31:11;53.68;38.83;68.77;;
66589;Laerm;53447;49.272;11.070;2023-07-16T07:33:36;49.79;39.30;60.94;;
66589;Laerm;53447;49.272;11.070;2023-07-16T07:36:01;48.56;39.12;61.17;;
66589;Laerm;53447;49.272;11.070;2023-07-16T07:38:27;47.19;39.80;59.80;;
66589;Laerm;53447;49.272;11.070;2023-07-16T07:40:53;53.30;39.21;71.85;;
66589;Laerm;53447;49.272;11.070;2023-07-16T07:43:18;52.77;37.58;68.26;;
66589;Laerm;53447;49.272;11.070;2023-07-16T07:45:44;48.08;37.96;60.27;;
66589;Laerm;53447;49.272;11.070;2023-07-16T07:48:09;53.02;44.39;63.19;;
66589;Laerm;53447;49.272;11.070;2023-07-16T07:50:34;52.62;44.49;63.92;;
66589;Laerm;53447;49.272;11.070;2023-07-16T07:52:59;49.41;38.73;65.04;;
66589;Laerm;53447;49.272;11.070;2023-07-16T07:55:25;55.36;38.73;77.68;;
66589;Laerm;53447;49.272;11.070;2023-07-16T07:57:50;43.42;37.45;58.76;;
66589;Laerm;53447;49.272;11.070;2023-07-16T08:00:15;50.98;37.84;64.89;;
66589;Laerm;53447;49.272;11.070;2023-07-16T08:02:40;52.34;37.45;67.24;;
66589;Laerm;53447;49.272;11.070;2023-07-16T08:05:06;51.29;37.17;66.13;;
66589;Laerm;53447;49.272;11.070;2023-07-16T08:07:31;48.92;37.31;64.48;;
66589;Laerm;53447;49.272;11.070;2023-07-16T08:09:59;47.12;36.87;61.05;;
66589;Laerm;53447;49.272;11.070;2023-07-16T08:12:24;46.79;38.07;60.97;;
66589;Laerm;53447;49.272;11.070;2023-07-16T08:14:49;52.36;37.96;68.76;;
66589;Laerm;53447;49.272;11.070;2023-07-16T08:17:15;51.40;39.29;63.89;;
66589;Laerm;53447;49.272;11.070;2023-07-16T08:19:40;51.71;37.31;64.31;;
66589;Laerm;53447;49.272;11.070;2023-07-16T08:22:05;49.51;37.96;61.74;;
66589;Laerm;53447;49.272;11.070;2023-07-16T08:24:30;48.98;38.20;63.50;;
66589;Laerm;53447;49.272;11.070;2023-07-16T08:26:56;47.69;37.84;60.22;;
66589;Laerm;53447;49.272;11.070;2023-07-16T08:29:21;50.82;36.87;69.40;;
66589;Laerm;53447;49.272;11.070;2023-07-16T08:31:46;45.55;37.45;58.05;;
66589;Laerm;53447;49.272;11.070;2023-07-16T08:34:11;44.20;37.31;56.73;;
66589;Laerm;53447;49.272;11.070;2023-07-16T08:36:37;46.39;38.20;59.43;;
66589;Laerm;53447;49.272;11.070;2023-07-16T08:39:05;48.88;37.84;66.50;;
66589;Laerm;53447;49.272;11.070;2023-07-16T08:41:30;49.66;39.64;62.72;;
66589;Laerm;53447;49.272;11.070;2023-07-16T08:43:56;49.31;38.53;61.26;;
66589;Laerm;53447;49.272;11.070;2023-07-16T08:46:21;51.04;38.42;66.71;;
66589;Laerm;53447;49.272;11.070;2023-07-16T08:48:46;40.80;37.02;51.20;;
66589;Laerm;53447;49.272;11.070;2023-07-16T08:51:14;52.18;36.55;70.18;;
66589;Laerm;53447;49.272;11.070;2023-07-16T08:53:39;50.65;38.20;62.09;;
66589;Laerm;53447;49.272;11.070;2023-07-16T08:56:04;48.59;37.71;60.85;;
66589;Laerm;53447;49.272;11.070;2023-07-16T08:58:30;51.30;38.53;62.74;;
66589;Laerm;53447;49.272;11.070;2023-07-16T09:00:56;53.25;39.21;66.53;;
66589;Laerm;53447;49.272;11.070;2023-07-16T09:03:21;51.71;39.64;65.84;;
66589;Laerm;53447;49.272;11.070;2023-07-16T09:05:46;50.96;39.03;63.78;;
66589;Laerm;53447;49.272;11.070;2023-07-16T09:08:12;46.84;37.58;59.89;;
66589;Laerm;53447;49.272;11.070;2023-07-16T09:10:39;49.16;38.42;62.62;;
66589;Laerm;53447;49.272;11.070;2023-07-16T09:13:04;47.78;38.93;62.05;;
66589;Laerm;53447;49.272;11.070;2023-07-16T09:15:30;48.75;38.68;60.82;;
66589;Laerm;53447;49.272;11.070;2023-07-16T09:17:55;52.91;39.03;66.39;;
66589;Laerm;53447;49.272;11.070;2023-07-16T09:20:21;50.46;37.84;63.00;;
66589;Laerm;53447;49.272;11.070;2023-07-16T09:22:49;51.34;37.96;66.36;;
66589;Laerm;53447;49.272;11.070;2023-07-16T09:25:14;44.65;38.31;60.11;;
66589;Laerm;53447;49.272;11.070;2023-07-16T09:27:40;46.14;38.42;59.38;;
66589;Laerm;53447;49.272;11.070;2023-07-16T09:30:05;45.51;37.45;62.09;;
66589;Laerm;53447;49.272;11.070;2023-07-16T09:32:35;44.96;38.83;62.01;;
66589;Laerm;53447;49.272;11.070;2023-07-16T09:35:00;47.16;38.08;62.59;;
66589;Laerm;53447;49.272;11.070;2023-07-16T09:37:26;45.57;38.08;60.18;;
66589;Laerm;53447;49.272;11.070;2023-07-16T09:39:52;50.03;37.71;62.04;;
66589;Laerm;53447;49.272;11.070;2023-07-16T09:42:18;47.20;37.96;62.13;;
66589;Laerm;53447;49.272;11.070;2023-07-16T09:44:44;45.52;37.58;61.69;;
66589;Laerm;53447;49.272;11.070;2023-07-16T09:47:09;46.99;37.96;61.17;;
66589;Laerm;53447;49.272;11.070;2023-07-16T09:49:35;43.27;37.58;57.49;;
66589;Laerm;53447;49.272;11.070;2023-07-16T09:52:00;46.94;38.20;61.55;;
66589;Laerm;53447;49.272;11.070;2023-07-16T09:54:26;47.55;37.71;60.03;;
66589;Laerm;53447;49.272;11.070;2023-07-16T09:56:55;43.85;37.96;56.24;;
66589;Laerm;53447;49.272;11.070;2023-07-16T09:59:21;45.19;37.31;59.10;;
66589;Laerm;53447;49.272;11.070;2023-07-16T10:01:48;48.07;39.21;62.03;;
66589;Laerm;53447;49.272;11.070;2023-07-16T10:04:17;50.45;40.03;62.56;;
66589;Laerm;53447;49.272;11.070;2023-07-16T10:06:55;49.61;38.73;63.14;;
66589;Laerm;53447;49.272;11.070;2023-07-16T10:14:42;47.36;38.42;63.33;;
66589;Laerm;53447;49.272;11.070;2023-07-16T10:17:07;45.42;38.42;63.33;;
66589;Laerm;53447;49.272;11.070;2023-07-16T10:22:17;47.41;37.84;61.36;;
66589;Laerm;53447;49.272;11.070;2023-07-16T10:24:43;51.99;39.12;64.97;;
66589;Laerm;53447;49.272;11.070;2023-07-16T10:27:08;50.20;38.63;64.11;;
66589;Laerm;53447;49.272;11.070;2023-07-16T10:29:34;49.83;37.31;68.07;;
66589;Laerm;53447;49.272;11.070;2023-07-16T10:32:01;50.04;38.83;63.56;;
66589;Laerm;53447;49.272;11.070;2023-07-16T10:34:27;49.32;39.03;66.00;;
66589;Laerm;53447;49.272;11.070;2023-07-16T10:36:52;49.12;38.63;62.71;;
66589;Laerm;53447;49.272;11.070;2023-07-16T10:39:17;50.84;39.21;63.46;;
66589;Laerm;53447;49.272;11.070;2023-07-16T10:41:43;50.61;38.42;64.75;;
66589;Laerm;53447;49.272;11.070;2023-07-16T10:44:08;52.25;37.71;64.15;;
66589;Laerm;53447;49.272;11.070;2023-07-16T10:46:34;47.06;38.73;60.95;;
66589;Laerm;53447;49.272;11.070;2023-07-16T10:48:59;47.33;38.53;60.77;;
66589;Laerm;53447;49.272;11.070;2023-07-16T10:51:25;49.45;38.63;62.19;;
66589;Laerm;53447;49.272;11.070;2023-07-16T10:53:51;49.23;43.22;64.20;;
66589;Laerm;53447;49.272;11.070;2023-07-16T10:56:16;49.98;39.03;63.69;;
66589;Laerm;53447;49.272;11.070;2023-07-16T10:58:41;43.07;37.84;57.08;;
66589;Laerm;53447;49.272;11.070;2023-07-16T11:01:08;43.89;39.80;60.21;;
66589;Laerm;53447;49.272;11.070;2023-07-16T11:03:34;46.73;40.18;60.56;;
66589;Laerm;53447;49.272;11.070;2023-07-16T11:06:05;52.47;40.53;63.02;;
66589;Laerm;53447;49.272;11.070;2023-07-16T11:08:30;50.72;39.80;64.39;;
66589;Laerm;53447;49.272;11.070;2023-07-16T11:10:56;47.04;38.83;61.72;;
66589;Laerm;53447;49.272;11.070;2023-07-16T11:13:25;47.16;39.96;60.17;;
66589;Laerm;53447;49.272;11.070;2023-07-16T11:15:50;47.87;40.25;61.11;;
66589;Laerm;53447;49.272;11.070;2023-07-16T11:18:15;45.05;39.56;60.65;;
66589;Laerm;53447;49.272;11.070;2023-07-16T11:20:40;47.86;38.42;61.26;;
66589;Laerm;53447;49.272;11.070;2023-07-16T11:23:06;48.54;38.31;62.92;;
66589;Laerm;53447;49.272;11.070;2023-07-16T11:25:31;48.78;36.87;61.94;;
66589;Laerm;53447;49.272;11.070;2023-07-16T11:27:56;44.47;38.08;60.45;;
66589;Laerm;53447;49.272;11.070;2023-07-16T11:30:22;45.75;38.83;60.15;;
66589;Laerm;53447;49.272;11.070;2023-07-16T11:32:48;48.15;39.72;60.99;;
66589;Laerm;53447;49.272;11.070;2023-07-16T11:35:17;48.33;38.20;61.72;;
66589;Laerm;53447;49.272;11.070;2023-07-16T11:37:43;42.70;39.03;52.84;;
66589;Laerm;53447;49.272;11.070;2023-07-16T11:40:10;51.10;39.80;67.08;;
66589;Laerm;53447;49.272;11.070;2023-07-16T11:42:36;42.41;39.39;53.42;;
66589;Laerm;53447;49.272;11.070;2023-07-16T11:45:02;45.75;39.80;58.28;;
66589;Laerm;53447;49.272;11.070;2023-07-16T11:47:28;43.56;40.03;62.09;;
66589;Laerm;53447;49.272;11.070;2023-07-16T11:49:53;45.39;37.84;60.33;;
66589;Laerm;53447;49.272;11.070;2023-07-16T11:52:29;50.38;38.42;64.35;;
66589;Laerm;53447;49.272;11.070;2023-07-16T11:54:58;49.37;38.20;65.92;;
66589;Laerm;53447;49.272;11.070;2023-07-16T11:57:26;50.52;38.20;61.68;;
66589;Laerm;53447;49.272;11.070;2023-07-16T11:59:52;48.00;39.03;61.28;;
66589;Laerm;53447;49.272;11.070;2023-07-16T12:02:17;46.60;38.31;61.83;;
66589;Laerm;53447;49.272;11.070;2023-07-16T12:04:42;52.98;38.42;66.88;;
66589;Laerm;53447;49.272;11.070;2023-07-16T12:07:08;48.38;37.84;62.02;;
66589;Laerm;53447;49.272;11.070;2023-07-16T12:09:33;48.18;37.96;61.99;;
66589;Laerm;53447;49.272;11.070;2023-07-16T12:11:59;47.49;38.42;63.98;;
66589;Laerm;53447;49.272;11.070;2023-07-16T12:14:24;46.04;37.84;61.17;;
66589;Laerm;53447;49.272;11.070;2023-07-16T12:16:50;47.35;37.84;62.46;;
66589;Laerm;53447;49.272;11.070;2023-07-16T12:19:15;52.16;38.08;63.37;;
66589;Laerm;53447;49.272;11.070;2023-07-16T12:21:40;43.76;37.17;58.20;;
66589;Laerm;53447;49.272;11.070;2023-07-16T12:24:05;49.26;38.42;63.13;;
66589;Laerm;53447;49.272;11.070;2023-07-16T12:26:31;49.48;38.42;63.35;;
66589;Laerm;53447;49.272;11.070;2023-07-16T12:28:56;48.60;38.31;63.99;;
66589;Laerm;53447;49.272;11.070;2023-07-16T12:31:21;51.53;37.17;68.43;;
66589;Laerm;53447;49.272;11.070;2023-07-16T12:33:47;46.52;37.84;61.41;;
66589;Laerm;53447;49.272;11.070;2023-07-16T12:36:12;47.37;37.84;60.64;;
66589;Laerm;53447;49.272;11.070;2023-07-16T12:38:38;43.98;38.93;56.43;;
66589;Laerm;53447;49.272;11.070;2023-07-16T12:41:03;50.31;38.73;68.10;;
66589;Laerm;53447;49.272;11.070;2023-07-16T12:43:28;48.29;38.93;65.34;;
66589;Laerm;53447;49.272;11.070;2023-07-16T12:45:53;42.86;38.73;55.98;;
66589;Laerm;53447;49.272;11.070;2023-07-16T12:48:19;44.98;39.03;58.84;;
66589;Laerm;53447;49.272;11.070;2023-07-16T12:50:44;45.60;38.20;59.58;;
66589;Laerm;53447;49.272;11.070;2023-07-16T12:53:09;51.49;38.20;67.35;;
66589;Laerm;53447;49.272;11.070;2023-07-16T12:55:35;48.45;37.71;64.42;;
66589;Laerm;53447;49.272;11.070;2023-07-16T12:58:00;48.16;37.45;61.60;;
66589;Laerm;53447;49.272;11.070;2023-07-16T13:00:25;48.08;38.08;60.85;;
66589;Laerm;53447;49.272;11.070;2023-07-16T13:02:51;47.28;38.08;59.81;;
66589;Laerm;53447;49.272;11.070;2023-07-16T13:05:16;44.00;36.87;58.61;;
66589;Laerm;53447;49.272;11.070;2023-07-16T13:07:41;48.92;38.08;62.41;;
66589;Laerm;53447;49.272;11.070;2023-07-16T13:10:07;51.43;37.45;67.98;;
66589;Laerm;53447;49.272;11.070;2023-07-16T13:12:33;52.56;38.42;76.70;;
66589;Laerm;53447;49.272;11.070;2023-07-16T13:14:58;50.01;39.39;62.77;;
66589;Laerm;53447;49.272;11.070;2023-07-16T13:17:23;48.77;37.31;65.59;;
66589;Laerm;53447;49.272;11.070;2023-07-16T13:19:48;47.76;36.71;62.23;;
66589;Laerm;53447;49.272;11.070;2023-07-16T13:22:13;49.46;37.84;66.84;;
66589;Laerm;53447;49.272;11.070;2023-07-16T13:24:39;43.51;38.31;60.80;;
66589;Laerm;53447;49.272;11.070;2023-07-16T13:27:04;43.24;38.31;59.34;;
66589;Laerm;53447;49.272;11.070;2023-07-16T13:29:29;47.13;37.45;65.63;;
66589;Laerm;53447;49.272;11.070;2023-07-16T13:31:55;52.08;38.73;66.26;;
66589;Laerm;53447;49.272;11.070;2023-07-16T13:34:20;46.19;37.84;58.70;;
66589;Laerm;53447;49.272;11.070;2023-07-16T13:36:45;43.07;38.31;57.47;;
66589;Laerm;53447;49.272;11.070;2023-07-16T13:39:10;44.77;37.96;62.52;;